Bijou, California
Current Conditions -  °F | °C
As of 12:53 PM on Thursday 18 Dec 2014 (Local Time) from KTVL Reporting Station
Clear Clear  
Wind Chill: 39°   Ceiling: Unl
Heat Index: 44°   Visibility: 10mi
Dew Point: 24°   Wind: 9mph
Humidity: 45%   Direction: 190°S
Pressure: 30.11"   Gusts: NA
Location:  38.9467°N, 119.967°W
Report Text: KTVL 182053Z AUTO 19008KT 10SM CLR 07/M04 A3011 RMK AO2 SLP181 T00671044 58005
Loading
Personal Weather Stations






























Interactive Weather Map New forecast layout! Learn more

10-Day Weather Forecast

Advertisements
Track Severe Weather on mobile